sensor_id;sensor_type;location;lat;lon;timestamp;P1;durP1;ratioP1;P2;durP2;ratioP2
39324;SDS011;25037;49.488;9.900;2024-02-16T00:01:16;6.60;;;3.20;;
39324;SDS011;25037;49.488;9.900;2024-02-16T00:03:43;7.03;;;3.03;;
39324;SDS011;25037;49.488;9.900;2024-02-16T00:06:11;8.02;;;3.13;;
39324;SDS011;25037;49.488;9.900;2024-02-16T00:08:39;7.38;;;3.50;;
39324;SDS011;25037;49.488;9.900;2024-02-16T00:11:06;7.00;;;2.92;;
39324;SDS011;25037;49.488;9.900;2024-02-16T00:13:33;8.43;;;3.33;;
39324;SDS011;25037;49.488;9.900;2024-02-16T00:16:00;7.13;;;3.10;;
39324;SDS011;25037;49.488;9.900;2024-02-16T00:18:28;5.63;;;2.83;;
39324;SDS011;25037;49.488;9.900;2024-02-16T00:20:55;7.47;;;2.92;;
39324;SDS011;25037;49.488;9.900;2024-02-16T00:23:23;9.30;;;2.78;;
39324;SDS011;25037;49.488;9.900;2024-02-16T00:25:51;6.93;;;3.40;;
39324;SDS011;25037;49.488;9.900;2024-02-16T00:28:19;8.90;;;2.97;;
39324;SDS011;25037;49.488;9.900;2024-02-16T00:30:46;8.77;;;3.58;;
39324;SDS011;25037;49.488;9.900;2024-02-16T00:33:13;7.65;;;3.25;;
39324;SDS011;25037;49.488;9.900;2024-02-16T00:38:08;5.22;;;3.17;;
39324;SDS011;25037;49.488;9.900;2024-02-16T00:40:34;6.97;;;3.13;;
39324;SDS011;25037;49.488;9.900;2024-02-16T00:43:02;6.35;;;2.85;;
39324;SDS011;25037;49.488;9.900;2024-02-16T00:45:30;6.72;;;2.95;;
39324;SDS011;25037;49.488;9.900;2024-02-16T00:47:58;6.20;;;3.30;;
39324;SDS011;25037;49.488;9.900;2024-02-16T00:50:25;7.05;;;2.92;;
39324;SDS011;25037;49.488;9.900;2024-02-16T00:52:53;8.77;;;2.72;;
39324;SDS011;25037;49.488;9.900;2024-02-16T00:55:20;6.43;;;2.38;;
39324;SDS011;25037;49.488;9.900;2024-02-16T00:57:47;6.32;;;2.60;;
39324;SDS011;25037;49.488;9.900;2024-02-16T01:00:15;6.55;;;2.60;;
39324;SDS011;25037;49.488;9.900;2024-02-16T01:02:42;5.47;;;2.38;;
39324;SDS011;25037;49.488;9.900;2024-02-16T01:05:10;5.55;;;2.08;;
39324;SDS011;25037;49.488;9.900;2024-02-16T01:07:37;4.93;;;2.33;;
39324;SDS011;25037;49.488;9.900;2024-02-16T01:10:06;4.93;;;2.40;;
39324;SDS011;25037;49.488;9.900;2024-02-16T01:12:34;7.93;;;3.45;;
39324;SDS011;25037;49.488;9.900;2024-02-16T01:15:02;5.90;;;2.95;;
39324;SDS011;25037;49.488;9.900;2024-02-16T01:17:30;5.50;;;2.58;;
39324;SDS011;25037;49.488;9.900;2024-02-16T01:19:59;7.45;;;2.88;;
39324;SDS011;25037;49.488;9.900;2024-02-16T01:22:26;5.03;;;2.42;;
39324;SDS011;25037;49.488;9.900;2024-02-16T01:24:55;6.43;;;2.95;;
39324;SDS011;25037;49.488;9.900;2024-02-16T01:27:23;6.97;;;3.22;;
39324;SDS011;25037;49.488;9.900;2024-02-16T01:29:50;5.80;;;2.83;;
39324;SDS011;25037;49.488;9.900;2024-02-16T01:32:18;7.90;;;3.53;;
39324;SDS011;25037;49.488;9.900;2024-02-16T01:34:45;6.20;;;2.95;;
39324;SDS011;25037;49.488;9.900;2024-02-16T01:37:16;6.82;;;3.30;;
39324;SDS011;25037;49.488;9.900;2024-02-16T01:39:43;6.05;;;3.33;;
39324;SDS011;25037;49.488;9.900;2024-02-16T01:42:11;7.78;;;2.88;;
39324;SDS011;25037;49.488;9.900;2024-02-16T01:44:38;5.85;;;3.13;;
39324;SDS011;25037;49.488;9.900;2024-02-16T01:47:06;10.82;;;2.92;;
39324;SDS011;25037;49.488;9.900;2024-02-16T01:49:33;7.78;;;3.03;;
39324;SDS011;25037;49.488;9.900;2024-02-16T01:52:02;5.43;;;2.70;;
39324;SDS011;25037;49.488;9.900;2024-02-16T01:54:30;6.00;;;2.47;;
39324;SDS011;25037;49.488;9.900;2024-02-16T01:56:57;5.32;;;2.38;;
39324;SDS011;25037;49.488;9.900;2024-02-16T01:59:26;6.35;;;2.70;;
39324;SDS011;25037;49.488;9.900;2024-02-16T02:01:56;5.80;;;2.95;;
39324;SDS011;25037;49.488;9.900;2024-02-16T02:04:23;5.55;;;3.35;;
39324;SDS011;25037;49.488;9.900;2024-02-16T02:06:51;7.10;;;2.90;;
39324;SDS011;25037;49.488;9.900;2024-02-16T02:09:19;6.63;;;3.38;;
39324;SDS011;25037;49.488;9.900;2024-02-16T02:14:14;5.72;;;3.13;;
39324;SDS011;25037;49.488;9.900;2024-02-16T02:16:41;10.90;;;3.22;;
39324;SDS011;25037;49.488;9.900;2024-02-16T02:19:20;7.85;;;3.38;;
39324;SDS011;25037;49.488;9.900;2024-02-16T02:21:48;6.60;;;3.05;;
39324;SDS011;25037;49.488;9.900;2024-02-16T02:24:17;7.05;;;2.95;;
39324;SDS011;25037;49.488;9.900;2024-02-16T02:26:44;5.50;;;2.60;;
39324;SDS011;25037;49.488;9.900;2024-02-16T02:29:12;7.57;;;2.72;;
39324;SDS011;25037;49.488;9.900;2024-02-16T02:34:07;5.68;;;2.83;;
39324;SDS011;25037;49.488;9.900;2024-02-16T02:36:35;4.95;;;2.30;;
39324;SDS011;25037;49.488;9.900;2024-02-16T02:39:02;6.57;;;3.00;;
39324;SDS011;25037;49.488;9.900;2024-02-16T02:41:30;9.10;;;3.30;;
39324;SDS011;25037;49.488;9.900;2024-02-16T02:43:59;6.50;;;3.00;;
39324;SDS011;25037;49.488;9.900;2024-02-16T02:46:26;6.72;;;3.20;;
39324;SDS011;25037;49.488;9.900;2024-02-16T02:48:54;6.32;;;3.08;;
39324;SDS011;25037;49.488;9.900;2024-02-16T02:51:22;12.52;;;3.40;;
39324;SDS011;25037;49.488;9.900;2024-02-16T02:53:50;9.48;;;3.50;;
39324;SDS011;25037;49.488;9.900;2024-02-16T02:56:17;8.02;;;3.40;;
39324;SDS011;25037;49.488;9.900;2024-02-16T02:58:44;6.13;;;3.35;;
39324;SDS011;25037;49.488;9.900;2024-02-16T03:01:12;8.05;;;3.45;;
39324;SDS011;25037;49.488;9.900;2024-02-16T03:03:40;6.68;;;3.67;;
39324;SDS011;25037;49.488;9.900;2024-02-16T03:06:08;7.05;;;3.30;;
39324;SDS011;25037;49.488;9.900;2024-02-16T03:08:36;5.78;;;3.00;;
39324;SDS011;25037;49.488;9.900;2024-02-16T03:11:03;5.28;;;3.15;;
39324;SDS011;25037;49.488;9.900;2024-02-16T03:13:31;6.32;;;3.13;;
39324;SDS011;25037;49.488;9.900;2024-02-16T03:15:59;7.55;;;3.10;;
39324;SDS011;25037;49.488;9.900;2024-02-16T03:18:30;7.82;;;3.08;;
39324;SDS011;25037;49.488;9.900;2024-02-16T03:20:59;7.43;;;3.47;;
39324;SDS011;25037;49.488;9.900;2024-02-16T03:23:26;7.20;;;3.20;;
39324;SDS011;25037;49.488;9.900;2024-02-16T03:25:54;9.32;;;3.17;;
39324;SDS011;25037;49.488;9.900;2024-02-16T03:30:49;5.35;;;3.05;;
39324;SDS011;25037;49.488;9.900;2024-02-16T03:33:17;5.38;;;2.63;;
39324;SDS011;25037;49.488;9.900;2024-02-16T03:35:44;4.70;;;2.85;;
39324;SDS011;25037;49.488;9.900;2024-02-16T03:38:12;6.53;;;3.10;;
39324;SDS011;25037;49.488;9.900;2024-02-16T03:40:39;5.28;;;2.92;;
39324;SDS011;25037;49.488;9.900;2024-02-16T03:43:07;7.13;;;3.00;;
39324;SDS011;25037;49.488;9.900;2024-02-16T03:48:03;7.45;;;2.83;;
39324;SDS011;25037;49.488;9.900;2024-02-16T03:50:32;6.65;;;2.75;;
39324;SDS011;25037;49.488;9.900;2024-02-16T03:52:59;6.15;;;3.05;;
39324;SDS011;25037;49.488;9.900;2024-02-16T03:55:26;6.25;;;3.22;;
39324;SDS011;25037;49.488;9.900;2024-02-16T03:57:55;5.75;;;2.95;;
39324;SDS011;25037;49.488;9.900;2024-02-16T04:00:22;8.45;;;3.25;;
39324;SDS011;25037;49.488;9.900;2024-02-16T04:02:49;7.75;;;3.10;;
39324;SDS011;25037;49.488;9.900;2024-02-16T04:05:17;5.35;;;3.25;;
39324;SDS011;25037;49.488;9.900;2024-02-16T04:07:44;8.77;;;3.45;;
39324;SDS011;25037;49.488;9.900;2024-02-16T04:10:11;6.78;;;2.85;;
39324;SDS011;25037;49.488;9.900;2024-02-16T04:12:42;7.85;;;3.17;;
39324;SDS011;25037;49.488;9.900;2024-02-16T04:15:09;5.93;;;2.90;;
39324;SDS011;25037;49.488;9.900;2024-02-16T04:17:37;6.05;;;2.90;;
39324;SDS011;25037;49.488;9.900;2024-02-16T04:20:05;8.02;;;2.90;;
39324;SDS011;25037;49.488;9.900;2024-02-16T04:22:33;5.80;;;2.80;;
39324;SDS011;25037;49.488;9.900;2024-02-16T04:25:04;5.20;;;2.90;;
39324;SDS011;25037;49.488;9.900;2024-02-16T04:27:32;6.88;;;3.63;;
39324;SDS011;25037;49.488;9.900;2024-02-16T04:30:00;7.68;;;3.42;;
39324;SDS011;25037;49.488;9.900;2024-02-16T04:32:28;7.10;;;3.63;;
39324;SDS011;25037;49.488;9.900;2024-02-16T04:34:56;6.88;;;2.92;;
39324;SDS011;25037;49.488;9.900;2024-02-16T04:37:27;6.22;;;2.75;;
39324;SDS011;25037;49.488;9.900;2024-02-16T04:39:54;6.38;;;2.70;;
39324;SDS011;25037;49.488;9.900;2024-02-16T04:42:22;6.78;;;2.70;;
39324;SDS011;25037;49.488;9.900;2024-02-16T04:47:16;6.05;;;2.70;;
39324;SDS011;25037;49.488;9.900;2024-02-16T04:49:43;8.75;;;3.03;;
39324;SDS011;25037;49.488;9.900;2024-02-16T04:52:11;8.25;;;2.60;;
39324;SDS011;25037;49.488;9.900;2024-02-16T04:54:38;10.43;;;2.95;;
39324;SDS011;25037;49.488;9.900;2024-02-16T04:57:07;6.32;;;2.53;;
39324;SDS011;25037;49.488;9.900;2024-02-16T04:59:35;6.30;;;2.78;;
39324;SDS011;25037;49.488;9.900;2024-02-16T05:02:02;4.65;;;2.53;;
39324;SDS011;25037;49.488;9.900;2024-02-16T05:04:30;7.15;;;3.05;;
39324;SDS011;25037;49.488;9.900;2024-02-16T05:06:57;6.75;;;2.95;;
39324;SDS011;25037;49.488;9.900;2024-02-16T05:09:25;6.30;;;2.08;;
39324;SDS011;25037;49.488;9.900;2024-02-16T05:11:53;5.68;;;2.75;;
39324;SDS011;25037;49.488;9.900;2024-02-16T05:14:20;6.72;;;3.03;;
39324;SDS011;25037;49.488;9.900;2024-02-16T05:16:48;7.72;;;2.97;;
39324;SDS011;25037;49.488;9.900;2024-02-16T05:19:18;7.88;;;3.63;;
39324;SDS011;25037;49.488;9.900;2024-02-16T05:21:45;10.90;;;3.95;;
39324;SDS011;25037;49.488;9.900;2024-02-16T05:24:12;7.18;;;3.60;;
39324;SDS011;25037;49.488;9.900;2024-02-16T05:26:40;9.20;;;3.40;;
39324;SDS011;25037;49.488;9.900;2024-02-16T05:29:07;6.82;;;3.15;;
39324;SDS011;25037;49.488;9.900;2024-02-16T05:31:35;8.70;;;3.55;;
39324;SDS011;25037;49.488;9.900;2024-02-16T05:34:05;7.18;;;3.13;;
39324;SDS011;25037;49.488;9.900;2024-02-16T05:36:32;7.38;;;3.85;;
39324;SDS011;25037;49.488;9.900;2024-02-16T05:39:03;8.18;;;4.40;;
39324;SDS011;25037;49.488;9.900;2024-02-16T05:41:47;9.25;;;3.60;;
39324;SDS011;25037;49.488;9.900;2024-02-16T05:44:15;8.27;;;3.25;;
39324;SDS011;25037;49.488;9.900;2024-02-16T05:46:44;7.22;;;3.15;;
39324;SDS011;25037;49.488;9.900;2024-02-16T05:49:11;7.00;;;3.67;;
39324;SDS011;25037;49.488;9.900;2024-02-16T05:51:39;6.63;;;3.00;;
39324;SDS011;25037;49.488;9.900;2024-02-16T05:54:07;8.02;;;3.08;;
39324;SDS011;25037;49.488;9.900;2024-02-16T05:56:35;6.80;;;2.67;;
39324;SDS011;25037;49.488;9.900;2024-02-16T05:59:05;7.00;;;3.03;;
39324;SDS011;25037;49.488;9.900;2024-02-16T06:01:33;7.07;;;2.83;;
39324;SDS011;25037;49.488;9.900;2024-02-16T06:04:00;5.13;;;2.30;;
39324;SDS011;25037;49.488;9.900;2024-02-16T06:06:27;6.07;;;2.70;;
39324;SDS011;25037;49.488;9.900;2024-02-16T06:11:21;6.72;;;2.78;;
39324;SDS011;25037;49.488;9.900;2024-02-16T06:16:16;6.95;;;3.10;;
39324;SDS011;25037;49.488;9.900;2024-02-16T06:18:44;5.55;;;2.22;;
39324;SDS011;25037;49.488;9.900;2024-02-16T06:21:12;6.90;;;2.92;;
39324;SDS011;25037;49.488;9.900;2024-02-16T06:23:40;5.88;;;2.65;;
39324;SDS011;25037;49.488;9.900;2024-02-16T06:26:07;4.40;;;2.72;;
39324;SDS011;25037;49.488;9.900;2024-02-16T06:28:34;6.38;;;3.35;;
39324;SDS011;25037;49.488;9.900;2024-02-16T06:31:02;5.85;;;2.90;;
39324;SDS011;25037;49.488;9.900;2024-02-16T06:33:29;8.60;;;2.72;;
39324;SDS011;25037;49.488;9.900;2024-02-16T06:35:58;8.18;;;3.35;;
39324;SDS011;25037;49.488;9.900;2024-02-16T06:38:26;5.78;;;3.22;;
39324;SDS011;25037;49.488;9.900;2024-02-16T06:40:53;6.90;;;2.55;;
39324;SDS011;25037;49.488;9.900;2024-02-16T06:43:20;7.13;;;2.72;;
39324;SDS011;25037;49.488;9.900;2024-02-16T06:45:47;6.07;;;3.00;;
39324;SDS011;25037;49.488;9.900;2024-02-16T06:48:15;7.45;;;3.13;;
39324;SDS011;25037;49.488;9.900;2024-02-16T06:50:42;7.15;;;2.67;;
39324;SDS011;25037;49.488;9.900;2024-02-16T06:53:09;6.32;;;3.25;;
39324;SDS011;25037;49.488;9.900;2024-02-16T06:55:37;7.97;;;3.10;;
39324;SDS011;25037;49.488;9.900;2024-02-16T06:58:04;8.90;;;3.58;;
39324;SDS011;25037;49.488;9.900;2024-02-16T07:00:32;8.05;;;2.60;;
39324;SDS011;25037;49.488;9.900;2024-02-16T07:02:59;5.55;;;3.03;;
39324;SDS011;25037;49.488;9.900;2024-02-16T07:05:26;9.20;;;3.20;;
39324;SDS011;25037;49.488;9.900;2024-02-16T07:07:54;6.60;;;3.53;;
39324;SDS011;25037;49.488;9.900;2024-02-16T07:10:22;8.75;;;3.50;;
39324;SDS011;25037;49.488;9.900;2024-02-16T07:12:49;7.38;;;3.33;;
39324;SDS011;25037;49.488;9.900;2024-02-16T07:15:17;6.43;;;3.40;;
39324;SDS011;25037;49.488;9.900;2024-02-16T07:17:44;6.53;;;3.80;;
39324;SDS011;25037;49.488;9.900;2024-02-16T07:20:12;8.23;;;3.20;;
39324;SDS011;25037;49.488;9.900;2024-02-16T07:22:42;10.10;;;3.50;;
39324;SDS011;25037;49.488;9.900;2024-02-16T07:25:10;7.15;;;2.67;;
39324;SDS011;25037;49.488;9.900;2024-02-16T07:27:39;7.95;;;3.55;;
39324;SDS011;25037;49.488;9.900;2024-02-16T07:30:08;9.07;;;3.53;;
39324;SDS011;25037;49.488;9.900;2024-02-16T07:32:37;9.57;;;4.22;;
39324;SDS011;25037;49.488;9.900;2024-02-16T07:35:06;6.32;;;3.30;;
39324;SDS011;25037;49.488;9.900;2024-02-16T07:37:33;8.80;;;4.72;;
39324;SDS011;25037;49.488;9.900;2024-02-16T07:40:00;12.38;;;5.05;;
39324;SDS011;25037;49.488;9.900;2024-02-16T07:42:28;9.50;;;5.03;;
39324;SDS011;25037;49.488;9.900;2024-02-16T07:44:55;11.65;;;5.35;;
39324;SDS011;25037;49.488;9.900;2024-02-16T07:47:23;14.93;;;7.80;;
39324;SDS011;25037;49.488;9.900;2024-02-16T07:49:50;18.27;;;7.28;;
39324;SDS011;25037;49.488;9.900;2024-02-16T07:52:18;12.63;;;6.40;;
39324;SDS011;25037;49.488;9.900;2024-02-16T07:54:45;11.10;;;6.35;;
39324;SDS011;25037;49.488;9.900;2024-02-16T07:59:40;18.60;;;7.40;;
39324;SDS011;25037;49.488;9.900;2024-02-16T08:02:07;16.52;;;7.13;;
39324;SDS011;25037;49.488;9.900;2024-02-16T08:04:36;16.23;;;6.88;;
39324;SDS011;25037;49.488;9.900;2024-02-16T08:07:03;16.70;;;6.65;;
39324;SDS011;25037;49.488;9.900;2024-02-16T08:09:46;12.82;;;6.50;;
39324;SDS011;25037;49.488;9.900;2024-02-16T08:12:14;15.82;;;5.38;;
39324;SDS011;25037;49.488;9.900;2024-02-16T08:14:42;10.43;;;4.93;;
39324;SDS011;25037;49.488;9.900;2024-02-16T08:17:11;9.77;;;5.10;;
39324;SDS011;25037;49.488;9.900;2024-02-16T08:19:51;10.35;;;4.68;;
39324;SDS011;25037;49.488;9.900;2024-02-16T08:22:20;11.35;;;5.00;;
39324;SDS011;25037;49.488;9.900;2024-02-16T08:24:48;11.52;;;5.68;;
39324;SDS011;25037;49.488;9.900;2024-02-16T08:27:16;11.18;;;5.75;;
39324;SDS011;25037;49.488;9.900;2024-02-16T08:29:46;8.73;;;4.22;;
39324;SDS011;25037;49.488;9.900;2024-02-16T08:32:18;8.98;;;4.22;;
39324;SDS011;25037;49.488;9.900;2024-02-16T08:34:49;8.15;;;3.83;;
39324;SDS011;25037;49.488;9.900;2024-02-16T08:37:17;6.05;;;3.53;;
39324;SDS011;25037;49.488;9.900;2024-02-16T08:39:45;8.73;;;3.60;;
39324;SDS011;25037;49.488;9.900;2024-02-16T08:42:24;9.00;;;4.68;;
39324;SDS011;25037;49.488;9.900;2024-02-16T08:44:53;7.43;;;3.65;;
39324;SDS011;25037;49.488;9.900;2024-02-16T08:47:22;8.77;;;4.25;;
39324;SDS011;25037;49.488;9.900;2024-02-16T08:49:49;11.27;;;4.20;;
39324;SDS011;25037;49.488;9.900;2024-02-16T08:52:17;8.68;;;4.45;;
39324;SDS011;25037;49.488;9.900;2024-02-16T08:54:49;8.73;;;3.55;;
39324;SDS011;25037;49.488;9.900;2024-02-16T08:57:18;9.45;;;3.40;;
39324;SDS011;25037;49.488;9.900;2024-02-16T08:59:47;8.55;;;3.35;;
39324;SDS011;25037;49.488;9.900;2024-02-16T09:02:14;8.98;;;3.60;;
39324;SDS011;25037;49.488;9.900;2024-02-16T09:04:41;7.78;;;3.95;;
39324;SDS011;25037;49.488;9.900;2024-02-16T09:07:09;8.00;;;4.25;;
39324;SDS011;25037;49.488;9.900;2024-02-16T09:09:37;10.45;;;4.93;;
39324;SDS011;25037;49.488;9.900;2024-02-16T09:12:05;11.18;;;5.07;;
39324;SDS011;25037;49.488;9.900;2024-02-16T09:14:32;9.82;;;4.82;;
39324;SDS011;25037;49.488;9.900;2024-02-16T09:16:59;9.68;;;4.75;;
39324;SDS011;25037;49.488;9.900;2024-02-16T09:19:26;11.55;;;5.28;;
39324;SDS011;25037;49.488;9.900;2024-02-16T09:21:54;9.57;;;5.18;;
39324;SDS011;25037;49.488;9.900;2024-02-16T09:24:24;10.98;;;5.28;;
39324;SDS011;25037;49.488;9.900;2024-02-16T09:26:58;9.32;;;4.78;;
39324;SDS011;25037;49.488;9.900;2024-02-16T09:29:34;8.43;;;5.20;;
39324;SDS011;25037;49.488;9.900;2024-02-16T09:32:01;13.27;;;5.78;;
39324;SDS011;25037;49.488;9.900;2024-02-16T09:34:56;19.00;;;6.35;;
39324;SDS011;25037;49.488;9.900;2024-02-16T09:37:23;10.98;;;5.53;;
39324;SDS011;25037;49.488;9.900;2024-02-16T09:39:50;11.57;;;5.68;;
39324;SDS011;25037;49.488;9.900;2024-02-16T09:42:16;7.28;;;4.32;;
39324;SDS011;25037;49.488;9.900;2024-02-16T09:44:43;7.22;;;3.83;;
39324;SDS011;25037;49.488;9.900;2024-02-16T09:47:11;10.98;;;4.38;;
39324;SDS011;25037;49.488;9.900;2024-02-16T09:49:40;7.45;;;4.32;;
39324;SDS011;25037;49.488;9.900;2024-02-16T09:52:08;9.68;;;4.47;;
39324;SDS011;25037;49.488;9.900;2024-02-16T09:54:40;6.95;;;3.78;;
39324;SDS011;25037;49.488;9.900;2024-02-16T09:57:07;8.10;;;3.80;;
39324;SDS011;25037;49.488;9.900;2024-02-16T09:59:34;7.70;;;4.40;;
39324;SDS011;25037;49.488;9.900;2024-02-16T10:02:02;6.97;;;4.05;;
39324;SDS011;25037;49.488;9.900;2024-02-16T10:04:29;7.57;;;3.92;;
39324;SDS011;25037;49.488;9.900;2024-02-16T10:07:02;9.68;;;3.65;;
39324;SDS011;25037;49.488;9.900;2024-02-16T10:09:35;8.48;;;4.05;;
39324;SDS011;25037;49.488;9.900;2024-02-16T10:12:02;12.50;;;3.78;;
39324;SDS011;25037;49.488;9.900;2024-02-16T10:14:29;7.05;;;3.85;;
39324;SDS011;25037;49.488;9.900;2024-02-16T10:19:30;6.05;;;3.95;;
39324;SDS011;25037;49.488;9.900;2024-02-16T10:22:11;8.38;;;3.05;;
39324;SDS011;25037;49.488;9.900;2024-02-16T10:24:39;6.03;;;3.30;;
39324;SDS011;25037;49.488;9.900;2024-02-16T10:27:16;6.03;;;2.60;;
39324;SDS011;25037;49.488;9.900;2024-02-16T10:29:46;5.30;;;2.97;;
39324;SDS011;25037;49.488;9.900;2024-02-16T10:32:17;6.15;;;3.15;;
39324;SDS011;25037;49.488;9.900;2024-02-16T10:34:45;4.05;;;2.25;;
39324;SDS011;25037;49.488;9.900;2024-02-16T10:37:16;5.45;;;3.13;;
39324;SDS011;25037;49.488;9.900;2024-02-16T10:39:43;5.03;;;3.00;;
39324;SDS011;25037;49.488;9.900;2024-02-16T10:42:11;7.60;;;3.20;;
39324;SDS011;25037;49.488;9.900;2024-02-16T10:44:40;5.25;;;2.90;;
39324;SDS011;25037;49.488;9.900;2024-02-16T10:47:09;5.80;;;3.05;;
39324;SDS011;25037;49.488;9.900;2024-02-16T10:52:04;4.63;;;1.85;;
39324;SDS011;25037;49.488;9.900;2024-02-16T10:54:32;4.00;;;1.38;;
39324;SDS011;25037;49.488;9.900;2024-02-16T10:57:00;4.57;;;1.50;;
39324;SDS011;25037;49.488;9.900;2024-02-16T10:59:27;4.10;;;1.33;;
39324;SDS011;25037;49.488;9.900;2024-02-16T11:02:14;3.50;;;1.35;;
39324;SDS011;25037;49.488;9.900;2024-02-16T11:07:12;4.03;;;1.42;;
39324;SDS011;25037;49.488;9.900;2024-02-16T11:09:43;6.30;;;1.73;;
39324;SDS011;25037;49.488;9.900;2024-02-16T11:12:14;6.75;;;1.83;;
39324;SDS011;25037;49.488;9.900;2024-02-16T11:14:43;3.65;;;1.45;;
39324;SDS011;25037;49.488;9.900;2024-02-16T11:17:22;5.85;;;1.35;;
39324;SDS011;25037;49.488;9.900;2024-02-16T11:19:49;5.10;;;1.75;;
39324;SDS011;25037;49.488;9.900;2024-02-16T11:22:17;3.83;;;1.35;;
39324;SDS011;25037;49.488;9.900;2024-02-16T11:24:46;3.15;;;1.13;;
39324;SDS011;25037;49.488;9.900;2024-02-16T11:27:14;3.75;;;1.25;;
39324;SDS011;25037;49.488;9.900;2024-02-16T11:29:45;3.25;;;1.42;;
39324;SDS011;25037;49.488;9.900;2024-02-16T11:32:12;7.70;;;1.55;;
39324;SDS011;25037;49.488;9.900;2024-02-16T11:34:39;4.35;;;1.55;;
39324;SDS011;25037;49.488;9.900;2024-02-16T11:37:06;4.40;;;1.20;;
39324;SDS011;25037;49.488;9.900;2024-02-16T11:39:33;2.85;;;1.20;;
39324;SDS011;25037;49.488;9.900;2024-02-16T11:42:05;4.95;;;1.45;;
39324;SDS011;25037;49.488;9.900;2024-02-16T11:44:34;3.58;;;1.55;;
39324;SDS011;25037;49.488;9.900;2024-02-16T11:47:02;4.22;;;1.13;;
39324;SDS011;25037;49.488;9.900;2024-02-16T11:49:29;5.82;;;1.65;;
39324;SDS011;25037;49.488;9.900;2024-02-16T11:51:56;4.63;;;1.25;;
39324;SDS011;25037;49.488;9.900;2024-02-16T11:54:25;5.32;;;1.50;;
39324;SDS011;25037;49.488;9.900;2024-02-16T11:56:52;2.80;;;1.23;;
39324;SDS011;25037;49.488;9.900;2024-02-16T11:59:19;4.07;;;1.73;;
39324;SDS011;25037;49.488;9.900;2024-02-16T12:01:52;2.88;;;1.33;;
39324;SDS011;25037;49.488;9.900;2024-02-16T12:04:26;6.00;;;1.50;;
39324;SDS011;25037;49.488;9.900;2024-02-16T12:07:00;3.97;;;1.42;;
39324;SDS011;25037;49.488;9.900;2024-02-16T12:09:31;4.00;;;1.60;;
39324;SDS011;25037;49.488;9.900;2024-02-16T12:12:01;4.43;;;1.23;;
39324;SDS011;25037;49.488;9.900;2024-02-16T12:14:29;4.53;;;1.42;;
39324;SDS011;25037;49.488;9.900;2024-02-16T12:16:56;3.88;;;2.00;;
39324;SDS011;25037;49.488;9.900;2024-02-16T12:19:23;5.53;;;1.55;;
39324;SDS011;25037;49.488;9.900;2024-02-16T12:21:55;5.07;;;1.35;;
39324;SDS011;25037;49.488;9.900;2024-02-16T12:24:25;5.78;;;1.60;;
39324;SDS011;25037;49.488;9.900;2024-02-16T12:26:51;3.85;;;1.40;;
39324;SDS011;25037;49.488;9.900;2024-02-16T12:29:18;5.55;;;1.42;;
39324;SDS011;25037;49.488;9.900;2024-02-16T12:31:45;5.55;;;1.70;;
39324;SDS011;25037;49.488;9.900;2024-02-16T12:34:15;5.57;;;1.45;;
39324;SDS011;25037;49.488;9.900;2024-02-16T12:36:42;4.75;;;1.50;;
39324;SDS011;25037;49.488;9.900;2024-02-16T12:39:13;5.45;;;1.42;;
39324;SDS011;25037;49.488;9.900;2024-02-16T12:41:42;4.13;;;1.63;;
39324;SDS011;25037;49.488;9.900;2024-02-16T12:44:10;7.65;;;1.67;;
39324;SDS011;25037;49.488;9.900;2024-02-16T12:46:37;5.63;;;1.65;;
39324;SDS011;25037;49.488;9.900;2024-02-16T12:49:05;4.22;;;1.50;;
39324;SDS011;25037;49.488;9.900;2024-02-16T12:51:32;5.25;;;1.55;;
39324;SDS011;25037;49.488;9.900;2024-02-16T12:53:59;5.28;;;1.40;;
39324;SDS011;25037;49.488;9.900;2024-02-16T12:56:30;5.68;;;1.92;;
39324;SDS011;25037;49.488;9.900;2024-02-16T12:58:57;3.88;;;1.45;;
39324;SDS011;25037;49.488;9.900;2024-02-16T13:01:26;4.82;;;1.30;;
39324;SDS011;25037;49.488;9.900;2024-02-16T13:03:53;3.30;;;1.45;;
39324;SDS011;25037;49.488;9.900;2024-02-16T13:06:20;5.25;;;1.75;;
39324;SDS011;25037;49.488;9.900;2024-02-16T13:08:51;3.83;;;1.23;;
39324;SDS011;25037;49.488;9.900;2024-02-16T13:11:19;6.95;;;1.52;;
39324;SDS011;25037;49.488;9.900;2024-02-16T13:13:46;4.88;;;1.88;;
39324;SDS011;25037;49.488;9.900;2024-02-16T13:16:13;6.05;;;1.70;;
39324;SDS011;25037;49.488;9.900;2024-02-16T13:18:40;3.58;;;1.63;;
39324;SDS011;25037;49.488;9.900;2024-02-16T13:21:07;5.50;;;1.67;;
39324;SDS011;25037;49.488;9.900;2024-02-16T13:23:34;8.40;;;1.40;;
39324;SDS011;25037;49.488;9.900;2024-02-16T13:26:01;5.32;;;1.58;;
39324;SDS011;25037;49.488;9.900;2024-02-16T13:28:27;6.00;;;2.05;;
39324;SDS011;25037;49.488;9.900;2024-02-16T13:30:54;12.20;;;2.03;;
39324;SDS011;25037;49.488;9.900;2024-02-16T13:33:21;6.63;;;2.00;;
39324;SDS011;25037;49.488;9.900;2024-02-16T13:35:47;5.35;;;1.60;;
39324;SDS011;25037;49.488;9.900;2024-02-16T13:38:14;5.93;;;1.73;;
39324;SDS011;25037;49.488;9.900;2024-02-16T13:40:41;5.15;;;1.73;;
39324;SDS011;25037;49.488;9.900;2024-02-16T13:43:09;5.25;;;1.73;;
39324;SDS011;25037;49.488;9.900;2024-02-16T13:45:47;3.88;;;2.00;;
39324;SDS011;25037;49.488;9.900;2024-02-16T13:48:16;5.20;;;1.60;;
39324;SDS011;25037;49.488;9.900;2024-02-16T13:50:44;5.45;;;1.27;;
39324;SDS011;25037;49.488;9.900;2024-02-16T13:53:15;4.03;;;1.65;;
39324;SDS011;25037;49.488;9.900;2024-02-16T13:55:47;6.05;;;1.70;;
39324;SDS011;25037;49.488;9.900;2024-02-16T13:58:14;3.70;;;1.50;;
39324;SDS011;25037;49.488;9.900;2024-02-16T14:00:40;4.78;;;1.55;;
39324;SDS011;25037;49.488;9.900;2024-02-16T14:03:08;4.97;;;1.75;;
39324;SDS011;25037;49.488;9.900;2024-02-16T14:05:37;7.22;;;1.83;;
39324;SDS011;25037;49.488;9.900;2024-02-16T14:08:05;6.15;;;1.70;;
39324;SDS011;25037;49.488;9.900;2024-02-16T14:10:34;5.10;;;1.70;;
39324;SDS011;25037;49.488;9.900;2024-02-16T14:13:02;6.80;;;1.88;;
39324;SDS011;25037;49.488;9.900;2024-02-16T14:15:29;6.32;;;2.25;;
39324;SDS011;25037;49.488;9.900;2024-02-16T14:17:58;5.47;;;2.25;;
39324;SDS011;25037;49.488;9.900;2024-02-16T14:20:30;6.28;;;1.42;;
39324;SDS011;25037;49.488;9.900;2024-02-16T14:22:57;7.63;;;2.20;;
39324;SDS011;25037;49.488;9.900;2024-02-16T14:27:51;7.15;;;2.22;;
39324;SDS011;25037;49.488;9.900;2024-02-16T14:30:18;10.07;;;2.13;;
39324;SDS011;25037;49.488;9.900;2024-02-16T14:32:45;9.50;;;1.85;;
39324;SDS011;25037;49.488;9.900;2024-02-16T14:35:14;5.53;;;2.40;;
39324;SDS011;25037;49.488;9.900;2024-02-16T14:37:41;5.18;;;2.13;;
39324;SDS011;25037;49.488;9.900;2024-02-16T14:42:36;5.53;;;2.00;;
39324;SDS011;25037;49.488;9.900;2024-02-16T14:45:04;7.00;;;2.17;;
39324;SDS011;25037;49.488;9.900;2024-02-16T14:47:35;6.82;;;2.53;;
39324;SDS011;25037;49.488;9.900;2024-02-16T14:50:05;5.45;;;1.90;;
39324;SDS011;25037;49.488;9.900;2024-02-16T14:52:34;8.32;;;2.47;;
39324;SDS011;25037;49.488;9.900;2024-02-16T14:55:01;9.40;;;2.58;;
39324;SDS011;25037;49.488;9.900;2024-02-16T14:57:27;5.45;;;2.22;;
39324;SDS011;25037;49.488;9.900;2024-02-16T14:59:54;6.68;;;2.22;;
39324;SDS011;25037;49.488;9.900;2024-02-16T15:02:23;5.20;;;1.92;;
39324;SDS011;25037;49.488;9.900;2024-02-16T15:04:50;5.43;;;2.05;;
39324;SDS011;25037;49.488;9.900;2024-02-16T15:07:19;5.40;;;2.00;;
39324;SDS011;25037;49.488;9.900;2024-02-16T15:09:45;6.80;;;1.98;;
39324;SDS011;25037;49.488;9.900;2024-02-16T15:12:12;6.35;;;2.20;;
39324;SDS011;25037;49.488;9.900;2024-02-16T15:14:39;8.93;;;2.00;;
39324;SDS011;25037;49.488;9.900;2024-02-16T15:19:34;6.95;;;2.28;;
39324;SDS011;25037;49.488;9.900;2024-02-16T15:22:01;7.28;;;1.70;;
39324;SDS011;25037;49.488;9.900;2024-02-16T15:26:54;5.60;;;2.03;;
39324;SDS011;25037;49.488;9.900;2024-02-16T15:29:21;6.05;;;2.17;;
39324;SDS011;25037;49.488;9.900;2024-02-16T15:31:47;4.40;;;1.73;;